Time;durP1;ratioP1;P1;durP2;ratioP2;P2;SDS_P1;SDS_P2;PMS_P1;PMS_P2;Temp;Humidity;BMP_temperature;BMP_pressure;BME280_temperature;BME280_humidity;BME280_pressure;Samples;Min_cycle;Max_cycle;Signal;HPM_P1;HPM_P2
2023/03/10 00:01:27;;;;;;;4.07;3.88;;;;;;;8.24;100.00;98321.69;6059021;23;20025;-78
2023/03/10 00:03:55;;;;;;;4.50;4.30;;;;;;;8.82;100.00;98396.34;6058607;23;20411;-79
2023/03/10 00:06:26;;;;;;;4.10;3.90;;;;;;;8.84;100.00;98395.28;6026177;23;20029;-78
2023/03/10 00:08:53;;;;;;;3.70;3.60;;;;;;;8.13;100.00;98283.34;6035706;23;20527;-78
2023/03/10 00:11:20;;;;;;;4.55;4.28;;;;;;;8.37;100.00;98311.88;6017937;23;20081;-78
2023/03/10 00:13:47;;;;;;;5.65;4.20;;;;;;;8.84;100.00;98383.97;6066156;23;20025;-80
2023/03/10 00:16:20;;;;;;;3.70;3.60;;;;;;;8.73;100.00;98358.72;6047900;23;20105;-79
2023/03/10 00:18:47;;;;;;;4.00;3.72;;;;;;;8.30;100.00;98296.84;6061145;23;20028;-79
2023/03/10 00:21:16;;;;;;;4.10;3.90;;;;;;;8.05;100.00;98251.81;6057425;23;20498;-79
2023/03/10 00:23:42;;;;;;;3.83;3.70;;;;;;;8.46;100.00;98306.91;6034928;23;20023;-78
2023/03/10 00:26:12;;;;;;;3.63;3.53;;;;;;;8.73;100.00;98341.22;6048916;23;20928;-78
2023/03/10 00:28:38;;;;;;;4.05;3.85;;;;;;;8.98;100.00;98376.66;6036353;23;20030;-79
2023/03/10 00:31:11;;;;;;;4.05;3.85;;;;;;;9.06;100.00;98362.97;6055504;23;20015;-80
2023/03/10 00:33:38;;;;;;;4.80;3.90;;;;;;;8.11;100.00;98235.63;6029122;23;20543;-78
2023/03/10 00:36:09;;;;;;;4.00;3.85;;;;;;;9.09;100.00;98380.19;6060652;23;20003;-78
2023/03/10 00:38:36;;;;;;;4.20;4.00;;;;;;;7.71;100.00;98159.72;6049079;23;20648;-78
2023/03/10 00:41:10;;;;;;;3.80;3.65;;;;;;;8.72;100.00;98302.97;6057088;23;20021;-79
2023/03/10 00:43:37;;;;;;;4.00;3.80;;;;;;;8.16;100.00;98193.47;6055314;23;20097;-78
2023/03/10 00:46:04;;;;;;;4.00;3.75;;;;;;;9.23;100.00;98376.41;6058812;23;20006;-77
2023/03/10 00:48:32;;;;;;;3.60;3.50;;;;;;;9.27;100.00;98372.56;5916629;23;20499;-79
2023/03/10 00:50:59;;;;;;;3.78;3.67;;;;;;;9.27;100.00;98373.41;6048378;23;20040;-79
2023/03/10 00:53:26;;;;;;;4.18;3.90;;;;;;;9.14;100.00;98347.44;6053043;23;20031;-79
2023/03/10 00:56:00;;;;;;;3.60;3.50;;;;;;;9.37;100.00;98368.22;6070104;23;20093;-79
2023/03/10 00:58:28;;;;;;;4.53;4.13;;;;;;;9.39;100.00;98377.59;6075481;23;20048;-79
2023/03/10 01:00:55;;;;;;;3.90;3.70;;;;;;;9.41;100.00;98380.09;6082003;23;20417;-78
2023/03/10 01:03:23;;;;;;;3.58;3.47;;;;;;;9.47;100.00;98378.75;6068780;23;20038;-80
2023/03/10 01:05:52;;;;;;;3.80;3.70;;;;;;;8.59;100.00;98236.97;6085537;23;20042;-79
2023/03/10 01:08:19;;;;;;;4.10;3.90;;;;;;;8.71;100.00;98267.31;6059670;23;20018;-79
2023/03/10 01:10:46;;;;;;;3.88;3.67;;;;;;;9.03;100.00;98310.88;6084793;23;20029;-79
2023/03/10 01:13:14;;;;;;;3.75;3.55;;;;;;;9.21;100.00;98332.03;6105613;23;20318;-80
2023/03/10 01:15:43;;;;;;;3.80;3.70;;;;;;;8.71;100.00;98264.69;6085763;23;20041;-79
2023/03/10 01:18:09;;;;;;;4.03;3.83;;;;;;;9.29;100.00;98331.41;6083123;23;20074;-79
2023/03/10 01:20:36;;;;;;;5.15;4.20;;;;;;;8.98;100.00;98272.03;6087093;23;20024;-79
2023/03/10 01:23:02;;;;;;;3.90;3.70;;;;;;;9.12;100.00;98307.50;6077621;23;20511;-79
2023/03/10 01:25:29;;;;;;;3.80;3.70;;;;;;;9.07;100.00;98288.72;6054797;23;20045;-79
2023/03/10 01:27:55;;;;;;;4.15;3.92;;;;;;;8.92;100.00;98284.78;6080621;23;20310;-78
2023/03/10 01:30:22;;;;;;;3.80;3.70;;;;;;;9.11;100.00;98300.59;6078078;23;20025;-78
2023/03/10 01:32:48;;;;;;;4.30;4.10;;;;;;;8.68;100.00;98241.44;6074783;23;20034;-79
2023/03/10 01:35:15;;;;;;;3.97;3.78;;;;;;;9.28;100.00;98321.88;6082948;23;20710;-80
2023/03/10 01:37:41;;;;;;;4.20;4.00;;;;;;;9.50;100.00;98350.53;6104072;23;20497;-78
2023/03/10 01:40:17;;;;;;;5.43;5.13;;;;;;;9.47;100.00;98358.63;6074569;23;20554;-78
2023/03/10 01:42:44;;;;;;;7.63;3.92;;;;;;;8.74;100.00;98245.31;6091337;23;20296;-79
2023/03/10 01:45:13;;;;;;;3.58;3.47;;;;;;;9.43;100.00;98370.31;6075139;23;20075;-78
2023/03/10 01:47:44;;;;;;;3.60;3.50;;;;;;;9.25;100.00;98364.03;6060186;23;20038;-78
2023/03/10 01:50:14;;;;;;;3.95;3.75;;;;;;;9.27;100.00;98343.78;6082564;23;20021;-78
2023/03/10 01:52:44;;;;;;;4.10;3.90;;;;;;;9.12;100.00;98319.72;6078728;23;20038;-79
2023/03/10 01:55:15;;;;;;;4.10;3.90;;;;;;;8.97;100.00;98301.75;6081701;23;20029;-80
2023/03/10 01:57:48;;;;;;;4.10;3.90;;;;;;;9.33;100.00;98372.06;6081600;23;20026;-80
2023/03/10 02:00:15;;;;;;;3.78;3.67;;;;;;;8.99;100.00;98322.56;6080422;23;20037;-80
2023/03/10 02:02:51;;;;;;;3.80;3.70;;;;;;;9.14;100.00;98359.66;6077093;23;20380;-80
2023/03/10 02:05:19;;;;;;;3.60;3.50;;;;;;;9.02;100.00;98343.25;6058079;23;20472;-79
2023/03/10 02:07:46;;;;;;;4.00;3.80;;;;;;;8.63;100.00;98282.00;6080543;23;20328;-79
2023/03/10 02:10:14;;;;;;;3.75;3.63;;;;;;;9.32;100.00;98383.47;6067019;23;20089;-79
2023/03/10 02:12:42;;;;;;;4.10;3.90;;;;;;;8.16;100.00;98198.69;6076634;23;20042;-79
2023/03/10 02:15:10;;;;;;;3.72;3.63;;;;;;;8.98;100.00;98326.16;6075799;23;20064;-79
2023/03/10 02:17:37;;;;;;;3.65;3.55;;;;;;;9.27;100.00;98373.41;6107343;23;20534;-78
2023/03/10 02:20:12;;;;;;;3.90;3.70;;;;;;;9.18;100.00;98369.78;6085664;23;20026;-79
2023/03/10 02:22:42;;;;;;;4.20;4.00;;;;;;;7.98;100.00;98175.75;6076383;23;20586;-78
2023/03/10 02:25:25;;;;;;;4.20;4.00;;;;;;;9.16;100.00;98368.22;6077263;23;20526;-78
2023/03/10 02:27:52;;;;;;;3.80;3.70;;;;;;;8.82;100.00;98304.81;6085579;23;20022;-78
2023/03/10 02:30:23;;;;;;;3.70;3.60;;;;;;;8.95;100.00;98329.81;6058989;23;20117;-78
2023/03/10 02:32:54;;;;;;;3.75;3.63;;;;;;;9.10;100.00;98366.97;6077802;23;20036;-78
2023/03/10 02:35:21;;;;;;;3.65;3.55;;;;;;;7.66;100.00;98133.13;6077293;23;20166;-78
2023/03/10 02:37:49;;;;;;;4.30;3.90;;;;;;;9.07;100.00;98380.28;6078916;23;20079;-78
2023/03/10 02:40:33;;;;;;;3.80;3.70;;;;;;;9.07;100.00;98358.53;6050965;23;20124;-79
2023/03/10 02:43:04;;;;;;;3.70;3.60;;;;;;;8.63;100.00;98301.13;6077462;23;20033;-79
2023/03/10 02:45:33;;;;;;;4.10;3.90;;;;;;;8.84;100.00;98323.81;6074896;23;20034;-79
2023/03/10 02:47:59;;;;;;;4.03;3.83;;;;;;;8.49;100.00;98275.28;6080155;23;20076;-79
2023/03/10 02:50:33;;;;;;;4.00;3.80;;;;;;;8.98;100.00;98358.34;6076044;23;20040;-78
2023/03/10 02:53:12;;;;;;;4.03;3.83;;;;;;;8.95;100.00;98357.78;6101480;23;20034;-79
2023/03/10 02:55:39;;;;;;;3.75;3.65;;;;;;;8.32;100.00;98269.63;6075768;23;20101;-78
2023/03/10 02:58:06;;;;;;;4.00;3.80;;;;;;;8.87;100.00;98360.19;6050883;23;20106;-78
2023/03/10 03:00:39;;;;;;;4.20;4.00;;;;;;;8.30;100.00;98268.09;6071194;23;20022;-78
2023/03/10 03:03:06;;;;;;;;;;;;;;;8.85;100.00;98372.56;6079704;23;20058;-78
2023/03/10 03:05:33;;;;;;;3.75;3.55;;;;;;;8.21;100.00;98251.38;6073415;23;20394;-78
2023/03/10 03:07:59;;;;;;;4.40;4.20;;;;;;;8.23;100.00;98253.88;6077617;23;20033;-79
2023/03/10 03:10:26;;;;;;;3.97;3.78;;;;;;;8.15;100.00;98238.81;6072316;23;20371;-79
2023/03/10 03:12:55;;;;;;;4.07;3.88;;;;;;;8.87;100.00;98349.75;6049055;23;20277;-78
2023/03/10 03:15:22;;;;;;;4.00;3.80;;;;;;;8.87;100.00;98347.94;6072011;23;20024;-78
2023/03/10 03:17:48;;;;;;;4.13;3.92;;;;;;;8.23;100.00;98246.88;6078297;23;20018;-79
2023/03/10 03:20:15;;;;;;;8.98;4.00;;;;;;;8.07;100.00;98236.00;6058790;23;20047;-78
2023/03/10 03:22:44;;;;;;;4.05;3.85;;;;;;;8.84;100.00;98352.59;6075179;23;20285;-78
2023/03/10 03:25:12;;;;;;;3.97;3.78;;;;;;;8.86;100.00;98348.06;6076233;23;20037;-78
2023/03/10 03:27:40;;;;;;;4.10;3.90;;;;;;;8.27;100.00;98245.66;6080763;23;20002;-79
2023/03/10 03:30:11;;;;;;;3.70;3.60;;;;;;;8.81;100.00;98345.00;6074247;23;20044;-79
2023/03/10 03:32:37;;;;;;;4.20;3.90;;;;;;;8.77;100.00;98341.81;6081760;23;20432;-79
2023/03/10 03:35:08;;;;;;;3.97;3.78;;;;;;;8.50;100.00;98301.31;6074668;23;20022;-79
2023/03/10 03:37:34;;;;;;;4.10;3.90;;;;;;;8.41;100.00;98291.59;6073314;23;20029;-79
2023/03/10 03:40:00;;;;;;;3.92;3.72;;;;;;;7.68;100.00;98180.84;6076020;23;20030;-79
2023/03/10 03:42:27;;;;;;;4.45;3.80;;;;;;;8.23;100.00;98270.38;6074923;23;20030;-80
2023/03/10 03:44:53;;;;;;;3.88;3.67;;;;;;;8.77;100.00;98349.66;6049712;23;20041;-80
2023/03/10 03:47:20;;;;;;;4.00;3.80;;;;;;;7.98;100.00;98217.53;6108398;23;20576;-80
2023/03/10 03:49:46;;;;;;;6.35;4.57;;;;;;;8.74;100.00;98329.84;6054640;23;20431;-79
2023/03/10 03:52:12;;;;;;;3.80;3.70;;;;;;;8.51;100.00;98286.44;6076555;23;20040;-81
2023/03/10 03:54:39;;;;;;;4.78;4.47;;;;;;;8.23;100.00;98236.41;6073425;23;20037;-79
2023/03/10 03:57:07;;;;;;;4.00;3.80;;;;;;;8.20;100.00;98223.63;6028705;23;20465;-80
2023/03/10 03:59:34;;;;;;;6.07;4.00;;;;;;;8.25;100.00;98228.47;6055020;23;20034;-79
2023/03/10 04:02:00;;;;;;;3.70;3.60;;;;;;;8.38;100.00;98261.28;6058202;23;20076;-79
2023/03/10 04:04:26;;;;;;;4.00;3.80;;;;;;;8.15;100.00;98212.69;6050567;23;20095;-79
2023/03/10 04:06:53;;;;;;;4.20;4.00;;;;;;;8.79;100.00;98313.75;6024013;23;20027;-79
2023/03/10 04:09:19;;;;;;;4.00;3.80;;;;;;;8.22;100.00;98226.94;6052252;23;20033;-80
2023/03/10 04:11:46;;;;;;;3.80;3.60;;;;;;;8.39;100.00;98236.81;6057366;23;20335;-77
2023/03/10 04:14:12;;;;;;;4.10;3.90;;;;;;;8.81;100.00;98303.16;6052267;23;20034;-78
2023/03/10 04:16:38;;;;;;;5.03;3.90;;;;;;;7.36;100.00;98072.06;6025124;23;20080;-78
2023/03/10 04:19:08;;;;;;;7.28;4.07;;;;;;;8.79;100.00;98304.13;6028918;23;20060;-79
2023/03/10 04:21:35;;;;;;;3.90;3.70;;;;;;;8.38;100.00;98229.13;6054923;23;20432;-78
2023/03/10 04:24:02;;;;;;;3.60;3.50;;;;;;;8.36;100.00;98231.84;6051720;23;20033;-79
2023/03/10 04:26:28;;;;;;;4.00;3.80;;;;;;;8.74;100.00;98288.00;6051484;23;20105;-78
2023/03/10 04:28:57;;;;;;;3.70;3.60;;;;;;;8.78;100.00;98291.19;6049359;23;20523;-78
2023/03/10 04:31:24;;;;;;;3.88;3.67;;;;;;;8.13;100.00;98194.53;6047872;23;20082;-78
2023/03/10 04:33:51;;;;;;;4.10;3.90;;;;;;;8.76;100.00;98285.25;6022675;23;20034;-78
2023/03/10 04:36:20;;;;;;;3.70;3.60;;;;;;;8.41;100.00;98226.25;6054452;23;20222;-78
2023/03/10 04:38:46;;;;;;;3.80;3.60;;;;;;;8.73;100.00;98282.88;6055234;23;20084;-78
2023/03/10 04:41:13;;;;;;;3.90;3.70;;;;;;;6.50;100.00;97946.00;6064073;23;20018;-79
2023/03/10 04:43:40;;;;;;;3.78;3.67;;;;;;;8.42;100.00;98248.84;6030458;23;20574;-78
2023/03/10 04:46:09;;;;;;;4.32;4.00;;;;;;;8.71;100.00;98290.03;6034296;23;20034;-78
2023/03/10 04:48:35;;;;;;;4.10;3.90;;;;;;;6.16;100.00;97887.00;6037442;23;20049;-78
2023/03/10 04:51:08;;;;;;;7.28;3.90;;;;;;;8.71;100.00;98293.47;6027038;23;20030;-79
2023/03/10 04:53:36;;;;;;;11.80;4.32;;;;;;;8.26;100.00;98228.34;6041354;23;20100;-79
2023/03/10 04:56:05;;;;;;;4.47;4.07;;;;;;;8.69;100.00;98284.91;6054299;23;20055;-79
2023/03/10 04:58:32;;;;;;;3.90;3.70;;;;;;;8.00;100.00;98193.91;6063869;23;20034;-78
2023/03/10 05:00:59;;;;;;;4.13;3.92;;;;;;;8.69;100.00;98290.16;6035096;23;20509;-79
2023/03/10 05:03:29;;;;;;;4.50;4.10;;;;;;;8.71;100.00;98288.25;6059979;23;20131;-78
2023/03/10 05:05:55;;;;;;;4.22;3.95;;;;;;;5.98;100.00;97858.03;6005358;23;20027;-79
2023/03/10 05:08:21;;;;;;;3.78;3.67;;;;;;;7.60;100.00;98118.81;6058130;23;20089;-78
2023/03/10 05:10:48;;;;;;;4.20;4.00;;;;;;;7.49;100.00;98096.19;6032731;23;20034;-78
2023/03/10 05:13:14;;;;;;;4.18;3.95;;;;;;;8.40;100.00;98242.88;6052740;23;20025;-79
2023/03/10 05:15:41;;;;;;;4.10;3.90;;;;;;;8.20;100.00;98210.56;6040150;23;20091;-79
2023/03/10 05:18:11;;;;;;;4.70;4.30;;;;;;;8.70;100.00;98286.59;6058712;23;20029;-78
2023/03/10 05:20:38;;;;;;;3.80;3.70;;;;;;;7.93;100.00;98164.00;6057585;23;20026;-79
2023/03/10 05:23:04;;;;;;;3.75;3.63;;;;;;;8.53;100.00;98261.00;6030497;23;20026;-77
2023/03/10 05:25:31;;;;;;;4.30;4.10;;;;;;;7.33;100.00;98064.47;6034727;23;20025;-78
2023/03/10 05:27:57;;;;;;;4.15;3.95;;;;;;;7.82;100.00;98151.00;6056559;23;20026;-79
2023/03/10 05:30:24;;;;;;;4.28;4.07;;;;;;;7.77;100.00;98157.41;6047628;23;20030;-78
2023/03/10 05:32:50;;;;;;;4.82;4.47;;;;;;;8.15;100.00;98207.47;6017526;23;20026;-78
2023/03/10 05:35:17;;;;;;;4.95;4.57;;;;;;;7.89;100.00;98160.81;6035046;23;20045;-76
2023/03/10 05:37:43;;;;;;;3.67;3.58;;;;;;;7.94;100.00;98176.94;6047799;23;20035;-77
2023/03/10 05:40:15;;;;;;;4.22;4.03;;;;;;;8.00;100.00;98199.13;6019613;23;20078;-78
2023/03/10 05:42:41;;;;;;;3.88;3.75;;;;;;;8.13;100.00;98215.44;6046392;23;20671;-77
2023/03/10 05:45:10;;;;;;;4.95;3.92;;;;;;;8.14;100.00;98230.16;6045883;23;20113;-76
2023/03/10 05:47:36;;;;;;;4.72;4.32;;;;;;;8.22;100.00;98229.53;6028808;23;20030;-77
2023/03/10 05:50:03;;;;;;;4.20;3.90;;;;;;;7.31;100.00;98084.63;6055984;23;20026;-78
2023/03/10 05:52:30;;;;;;;4.47;4.18;;;;;;;7.46;100.00;98129.56;6048061;23;20729;-77
2023/03/10 05:54:56;;;;;;;4.10;3.88;;;;;;;8.18;100.00;98246.44;6059516;23;20026;-78
2023/03/10 05:57:22;;;;;;;3.80;3.67;;;;;;;7.74;100.00;98172.53;6080806;23;20014;-77
2023/03/10 05:59:49;;;;;;;3.60;3.50;;;;;;;8.26;100.00;98272.75;6077955;23;20029;-77
2023/03/10 06:02:15;;;;;;;3.95;3.75;;;;;;;7.89;100.00;98204.38;6043353;23;20167;-77
2023/03/10 06:04:42;;;;;;;3.60;3.50;;;;;;;8.27;100.00;98260.50;6077947;23;20317;-77
2023/03/10 06:07:08;;;;;;;5.63;4.40;;;;;;;7.24;100.00;98094.75;6058461;23;20340;-78
2023/03/10 06:09:34;;;;;;;4.38;4.18;;;;;;;7.41;100.00;98114.25;6057825;23;20042;-77
2023/03/10 06:12:01;;;;;;;4.82;3.78;;;;;;;8.23;100.00;98240.81;6070130;23;20117;-78
2023/03/10 06:14:27;;;;;;;3.60;3.50;;;;;;;8.15;100.00;98228.38;6053984;23;20024;-77
2023/03/10 06:16:54;;;;;;;5.93;4.22;;;;;;;8.33;100.00;98247.75;6078264;23;20115;-76
2023/03/10 06:19:22;;;;;;;4.13;3.92;;;;;;;8.51;100.00;98266.34;6084025;23;20515;-77
2023/03/10 06:21:48;;;;;;;3.70;3.60;;;;;;;8.05;100.00;98204.78;6061282;23;20018;-77
2023/03/10 06:24:15;;;;;;;4.10;3.90;;;;;;;8.28;100.00;98243.88;6081573;23;20293;-77
2023/03/10 06:26:41;;;;;;;4.20;4.00;;;;;;;7.61;100.00;98125.69;6082144;23;20029;-77
2023/03/10 06:29:08;;;;;;;3.67;3.58;;;;;;;8.25;100.00;98247.56;6078826;23;20035;-77
2023/03/10 06:31:35;;;;;;;3.90;3.78;;;;;;;7.82;100.00;98149.22;6083010;23;20082;-78
2023/03/10 06:34:01;;;;;;;4.43;4.13;;;;;;;7.53;100.00;98105.44;6062968;23;20515;-78
2023/03/10 06:36:32;;;;;;;4.72;4.25;;;;;;;7.91;100.00;98169.34;6086526;23;20025;-78
2023/03/10 06:38:58;;;;;;;5.13;4.32;;;;;;;8.10;100.00;98200.03;6080182;23;20014;-78
2023/03/10 06:41:26;;;;;;;4.38;3.97;;;;;;;8.16;100.00;98215.19;6080679;23;20253;-77
2023/03/10 06:43:53;;;;;;;4.03;3.83;;;;;;;7.31;100.00;98061.16;6085697;23;20040;-79
2023/03/10 06:46:19;;;;;;;5.15;3.72;;;;;;;7.57;100.00;98124.28;6057481;23;20603;-78
2023/03/10 06:48:46;;;;;;;7.60;3.80;;;;;;;8.38;100.00;98236.94;6079085;23;20099;-77
2023/03/10 06:51:16;;;;;;;4.53;3.88;;;;;;;8.39;100.00;98239.41;6058620;23;20543;-79
2023/03/10 06:53:42;;;;;;;4.20;3.80;;;;;;;7.33;100.00;98067.91;6083086;23;20622;-79
2023/03/10 06:56:18;;;;;;;12.10;4.13;;;;;;;8.67;100.00;98288.63;6083775;23;20346;-77
2023/03/10 06:58:46;;;;;;;4.22;3.72;;;;;;;7.85;100.00;98169.84;6055059;23;20468;-78
2023/03/10 07:01:27;;;;;;;4.43;4.13;;;;;;;8.68;100.00;98282.44;6062387;23;20508;-78
2023/03/10 07:03:54;;;;;;;4.13;3.92;;;;;;;8.57;100.00;98262.41;6080772;23;20091;-78
2023/03/10 07:06:21;;;;;;;4.20;3.90;;;;;;;8.18;100.00;98204.63;6083570;23;20034;-78
2023/03/10 07:08:48;;;;;;;3.80;3.60;;;;;;;8.42;100.00;98227.94;6061363;23;20021;-78
2023/03/10 07:11:15;;;;;;;4.47;4.28;;;;;;;8.97;100.00;98287.84;6043628;23;20098;-77
2023/03/10 07:13:42;;;;;;;4.03;3.83;;;;;;;8.03;100.00;98117.06;6061308;23;20097;-77
2023/03/10 07:16:08;;;;;;;4.07;3.88;;;;;;;9.10;100.00;98293.72;6066029;23;20018;-79
2023/03/10 07:18:35;;;;;;;5.40;4.43;;;;;;;9.02;100.00;98290.91;6078274;23;20034;-78
2023/03/10 07:21:08;;;;;;;4.18;3.97;;;;;;;8.03;100.00;98136.19;6054618;23;20155;-80
2023/03/10 07:23:35;;;;;;;4.15;3.95;;;;;;;8.38;100.00;98163.78;6083148;23;20018;-78
2023/03/10 07:26:02;;;;;;;4.85;4.60;;;;;;;8.89;100.00;98257.09;6052600;23;20034;-78
2023/03/10 07:28:29;;;;;;;4.07;3.88;;;;;;;8.67;100.00;98224.09;6070406;23;20029;-79
2023/03/10 07:30:56;;;;;;;4.15;3.95;;;;;;;8.03;100.00;98078.72;6080845;23;20055;-77
2023/03/10 07:33:23;;;;;;;4.00;3.80;;;;;;;8.84;100.00;98193.91;6067025;23;20017;-78
2023/03/10 07:35:49;;;;;;;12.50;4.15;;;;;;;9.61;100.00;98296.41;6059982;23;20014;-79
2023/03/10 07:38:15;;;;;;;5.32;4.93;;;;;;;6.75;100.00;97831.00;6091743;23;20389;-79
2023/03/10 07:40:42;;;;;;;4.32;4.13;;;;;;;9.91;100.00;98293.72;6085656;23;20111;-78
2023/03/10 07:43:08;;;;;;;4.00;3.80;;;;;;;9.74;100.00;98240.19;6078840;23;20545;-76
2023/03/10 07:45:36;;;;;;;4.78;4.43;;;;;;;10.37;100.00;98307.19;6058546;23;20174;-79
2023/03/10 07:48:03;;;;;;;4.72;4.43;;;;;;;10.34;100.00;98305.66;6074925;23;20051;-81
2023/03/10 07:50:29;;;;;;;5.05;4.22;;;;;;;10.25;100.00;98253.19;6074649;23;20353;-80
2023/03/10 07:52:56;;;;;;;21.45;4.75;;;;;;;9.96;100.00;98212.94;6058542;23;20275;-80
2023/03/10 07:55:23;;;;;;;4.55;4.30;;;;;;;10.16;100.00;98241.72;6062067;23;20086;-78
2023/03/10 07:57:49;;;;;;;4.45;4.22;;;;;;;9.79;100.00;98176.91;6051404;23;20033;-78
2023/03/10 08:00:17;;;;;;;4.53;4.10;;;;;;;10.57;100.00;98310.63;6054580;23;20077;-78
2023/03/10 08:02:43;;;;;;;4.25;4.05;;;;;;;10.45;100.00;98280.28;6050572;23;20023;-79
2023/03/10 08:05:10;;;;;;;4.82;4.53;;;;;;;10.29;100.00;98263.25;6027895;23;20035;-81
2023/03/10 08:07:37;;;;;;;4.30;4.05;;;;;;;10.56;100.00;98306.34;6031413;23;20101;-82
2023/03/10 08:10:04;;;;;;;7.85;4.63;;;;;;;10.21;100.00;98259.69;6051760;23;20420;-80
2023/03/10 08:12:31;;;;;;;4.00;3.80;;;;;;;9.87;100.00;98195.41;6050398;23;20034;-78
2023/03/10 08:14:57;;;;;;;3.97;3.80;;;;;;;10.52;100.00;98304.94;6026666;23;20115;-78
2023/03/10 08:17:29;;;;;;;4.70;4.40;;;;;;;8.84;100.00;98041.38;6050237;23;20028;-80
2023/03/10 08:19:57;;;;;;;4.85;4.50;;;;;;;10.07;100.00;98259.13;6054077;23;20303;-79
2023/03/10 08:22:23;;;;;;;4.50;4.30;;;;;;;10.37;100.00;98315.03;6031384;23;20018;-78
2023/03/10 08:24:50;;;;;;;4.72;4.43;;;;;;;9.42;100.00;98164.50;6036326;23;20118;-78
2023/03/10 08:27:16;;;;;;;4.07;3.88;;;;;;;10.10;100.00;98264.09;6030587;23;20051;-80
2023/03/10 08:29:43;;;;;;;4.30;4.10;;;;;;;9.67;100.00;98202.41;6047551;23;20027;-79
2023/03/10 08:32:09;;;;;;;4.18;3.97;;;;;;;9.64;100.00;98171.28;6031037;23;20030;-80
2023/03/10 08:34:36;;;;;;;5.55;4.40;;;;;;;10.28;100.00;98258.16;6045923;23;20345;-80
2023/03/10 08:37:03;;;;;;;4.45;4.20;;;;;;;10.07;100.00;98216.38;6047836;23;20338;-80
2023/03/10 08:39:29;;;;;;;5.03;4.47;;;;;;;9.60;100.00;98127.97;6028642;23;20026;-81
2023/03/10 08:41:55;;;;;;;5.70;5.22;;;;;;;10.44;100.00;98240.09;6046083;23;20246;-79
2023/03/10 08:44:22;;;;;;;4.65;4.35;;;;;;;10.51;100.00;98237.75;6048008;23;20144;-80
2023/03/10 08:46:49;;;;;;;6.13;4.82;;;;;;;10.07;100.00;98145.63;6047639;23;20471;-79
2023/03/10 08:49:17;;;;;;;6.50;4.35;;;;;;;11.15;100.00;98292.16;6025197;23;20422;-80
2023/03/10 08:51:44;;;;;;;5.85;4.47;;;;;;;10.89;100.00;98252.59;6020605;23;20854;-80
2023/03/10 08:54:14;;;;;;;8.43;4.40;;;;;;;10.48;100.00;98160.19;6049264;23;20382;-80
2023/03/10 08:56:40;;;;;;;5.45;4.88;;;;;;;10.88;100.00;98210.72;6078846;23;20026;-81
2023/03/10 08:59:07;;;;;;;4.43;4.22;;;;;;;10.93;100.00;98192.78;6074678;23;20111;-81
2023/03/10 09:01:35;;;;;;;4.55;4.25;;;;;;;11.57;100.00;98267.25;6078786;23;20230;-79
2023/03/10 09:04:04;;;;;;;4.47;4.28;;;;;;;11.01;100.00;98169.25;6081538;23;20707;-80
2023/03/10 09:06:30;;;;;;;5.20;4.70;;;;;;;11.70;100.00;98246.69;6084438;23;20026;-82
2023/03/10 09:08:57;;;;;;;4.50;4.30;;;;;;;11.73;100.00;98241.16;6092772;23;20761;-80
2023/03/10 09:11:27;;;;;;;5.38;4.72;;;;;;;11.90;100.00;98242.16;6086179;23;20061;-82
2023/03/10 09:13:57;;;;;;;10.30;5.47;;;;;;;11.31;100.00;98120.88;6076404;23;20588;-81
2023/03/10 09:16:24;;;;;;;5.20;4.80;;;;;;;11.53;100.00;98151.13;6053477;23;20014;-80
2023/03/10 09:18:51;;;;;;;11.15;5.22;;;;;;;11.28;100.00;98112.47;6024723;23;20111;-80
2023/03/10 09:21:18;;;;;;;5.55;5.13;;;;;;;11.23;100.00;98112.09;6085337;23;20014;-80
2023/03/10 09:23:47;;;;;;;8.98;5.32;;;;;;;11.69;100.00;98176.75;6057959;23;20254;-80
2023/03/10 09:26:14;;;;;;;11.07;6.25;;;;;;;11.52;100.00;98169.66;6092503;23;20527;-80
2023/03/10 09:28:41;;;;;;;4.90;4.50;;;;;;;11.98;100.00;98200.19;6057364;23;20030;-81
2023/03/10 09:31:13;;;;;;;6.18;4.97;;;;;;;11.48;100.00;98127.09;6064807;23;20085;-81
2023/03/10 09:33:40;;;;;;;5.15;4.70;;;;;;;8.59;100.00;97652.22;6056016;23;21091;-81
2023/03/10 09:36:07;;;;;;;5.03;4.63;;;;;;;11.14;100.00;98012.25;6058640;23;20097;-81
2023/03/10 09:38:34;;;;;;;6.68;5.07;;;;;;;12.30;100.00;98164.63;6055615;23;20064;-81
2023/03/10 09:41:19;;;;;;;5.85;4.82;;;;;;;12.59;100.00;98158.28;6084199;23;20022;-82
2023/03/10 09:44:22;;;;;;;6.15;5.25;;;;;;;12.20;100.00;98011.41;6058006;23;20049;-81
2023/03/10 09:47:01;;;;;;;;;;;;;;;13.13;97.73;98123.81;6031515;23;20040;-82
2023/03/10 09:49:38;;;;;;;14.43;4.97;;;;;;;12.96;97.99;98110.56;6081360;23;19912;-82
2023/03/10 09:52:17;;;;;;;6.05;5.50;;;;;;;13.04;97.55;98108.94;6054531;23;20087;-81
2023/03/10 09:54:55;;;;;;;11.15;5.90;;;;;;;13.02;96.81;98098.56;6081270;23;20022;-81
2023/03/10 09:57:22;;;;;;;5.22;4.93;;;;;;;12.46;95.72;97973.72;6061316;23;20024;-81
2023/03/10 09:59:52;;;;;;;5.40;5.10;;;;;;;13.38;95.28;98079.94;6086280;23;20538;-82
2023/03/10 10:02:26;;;;;;;4.80;4.57;;;;;;;12.13;93.25;97858.72;6059116;23;20019;-81
2023/03/10 10:04:57;;;;;;;6.38;4.85;;;;;;;13.81;91.29;98061.34;6082993;23;20029;-81
2023/03/10 10:07:28;;;;;;;5.18;4.78;;;;;;;13.57;89.30;97990.03;6054046;23;20030;-81
2023/03/10 10:10:04;;;;;;;5.72;5.22;;;;;;;12.97;87.66;97898.16;6086811;23;20050;-81
2023/03/10 10:12:31;;;;;;;6.80;5.25;;;;;;;13.93;87.90;98031.84;6060442;23;20046;-80
2023/03/10 10:15:13;;;;;;;5.65;5.10;;;;;;;14.03;88.47;98029.03;6083242;23;20550;-81
2023/03/10 10:18:04;;;;;;;4.80;4.50;;;;;;;14.09;86.33;98004.63;6053821;23;20765;-81
2023/03/10 10:21:04;;;;;;;9.75;5.00;;;;;;;14.35;84.79;98004.38;6078072;23;20333;-81
2023/03/10 10:23:45;;;;;;;8.73;5.75;;;;;;;14.18;79.52;97943.94;6061339;23;20024;-80
2023/03/10 10:26:15;;;;;;;5.20;4.80;;;;;;;12.75;75.68;97678.59;6057910;23;20093;-81
2023/03/10 10:28:52;;;;;;;5.35;4.95;;;;;;;13.67;77.24;97858.09;6089414;23;20049;-81
2023/03/10 10:31:25;;;;;;;4.78;4.47;;;;;;;13.66;76.77;97853.81;6077299;23;20162;-81
2023/03/10 10:34:06;;;;;;;5.40;4.80;;;;;;;13.60;78.16;97887.94;6083248;23;20771;-81
2023/03/10 10:36:33;;;;;;;5.57;4.97;;;;;;;13.42;79.92;97906.56;6055471;23;20030;-79
2023/03/10 10:39:01;;;;;;;5.88;5.30;;;;;;;13.05;80.95;97892.91;6054218;23;20596;-81
2023/03/10 10:41:30;;;;;;;4.70;4.50;;;;;;;12.62;82.28;97872.97;6061767;23;20036;-81
2023/03/10 10:44:04;;;;;;;4.40;4.20;;;;;;;12.22;83.52;97859.56;6082214;23;20017;-81
2023/03/10 10:46:31;;;;;;;5.45;4.90;;;;;;;12.36;86.59;97932.56;6059958;23;20401;-81
2023/03/10 10:49:19;;;;;;;5.40;5.00;;;;;;;12.17;89.85;97956.53;6083919;23;20030;-81
2023/03/10 10:52:17;;;;;;;7.13;4.50;;;;;;;12.03;93.03;97980.75;6066652;23;20037;-81
2023/03/10 10:54:53;;;;;;;4.50;4.30;;;;;;;12.02;93.03;97989.63;6091444;23;20027;-81
2023/03/10 10:57:22;;;;;;;4.80;4.50;;;;;;;11.80;94.50;97991.75;6086053;23;20038;-81
2023/03/10 10:59:48;;;;;;;4.50;4.30;;;;;;;11.26;97.01;97946.38;6083999;23;20022;-81
2023/03/10 11:02:31;;;;;;;6.35;4.40;;;;;;;11.72;99.72;98000.41;6086793;23;20519;-81
2023/03/10 11:05:13;;;;;;;4.65;4.43;;;;;;;11.80;100.00;98059.25;6084620;23;20034;-80
2023/03/10 11:07:39;;;;;;;5.10;4.65;;;;;;;10.89;100.00;97934.28;6085938;23;20028;-79
2023/03/10 11:10:18;;;;;;;4.90;4.60;;;;;;;11.61;100.00;98026.13;6092000;23;20391;-81
2023/03/10 11:12:55;;;;;;;4.57;4.38;;;;;;;11.52;100.00;98030.47;6090333;23;20234;-82
2023/03/10 11:15:31;;;;;;;4.88;4.68;;;;;;;11.03;100.00;97975.75;6087902;23;20022;-80
2023/03/10 11:18:27;;;;;;;4.28;4.07;;;;;;;11.58;100.00;98112.09;6078756;23;20578;-81
2023/03/10 11:21:05;;;;;;;4.70;4.40;;;;;;;11.54;100.00;98136.19;6105263;23;20408;-82
2023/03/10 11:23:57;;;;;;;4.50;4.30;;;;;;;10.83;100.00;98055.56;6101906;23;20033;-81
2023/03/10 11:26:34;;;;;;;5.10;4.68;;;;;;;11.38;100.00;98177.09;6085247;23;20107;-81
2023/03/10 11:29:16;;;;;;;4.72;4.43;;;;;;;11.09;100.00;98182.47;6080749;23;20470;-81
2023/03/10 11:31:51;;;;;;;4.90;4.50;;;;;;;9.99;100.00;98054.59;6081670;23;20030;-81
2023/03/10 11:34:22;;;;;;;4.68;4.47;;;;;;;9.04;100.00;97921.91;6084344;23;20028;-81
2023/03/10 11:37:12;;;;;;;4.93;4.55;;;;;;;10.88;100.00;98227.28;6084779;23;20064;-82
2023/03/10 11:39:42;;;;;;;4.75;4.53;;;;;;;10.56;100.00;98214.53;6085450;23;20089;-81
2023/03/10 11:42:24;;;;;;;4.50;4.30;;;;;;;10.00;100.00;98137.47;6080492;23;20021;-82